Archival Weather

San Diego Intl

San Diego, California (KSAN)

Report from: Thursday, March 21, 2024 9:51 AM PDT
Current time: Tuesday, June 18, 2024 4:24 AM PDT

Current weather – Weather history – Daily summaries
Weather forecast

Present weatherHaze
Temperature16.1°C (61.0°F)
Dew point11.1°C (52.0°F)
Winds 3 kts (1.5 m/s, 3.5 mph) Vrb
Winds variableWinds variable
Visibility6 mi. (9.7 km)
Clouds Scattered clouds 1,400 ft. (427 m)
Altimeter30.13 in.Hg (1020 mB)
Relative humidity72 %
Density altitude78 ft. (24 m)
Sea-level pressure102.0 kPa (1020 mB, 30.13 in.Hg)
Remarks System requires maintenance
Automated weather observing station with precipitation discriminator
Flight conditions Visual Meteorological Conditions
Raw dataKSAN 211651Z VRB03KT 6SM HZ SCT014 16/11 A3013 RMK AO2 SLP203 T01610111 $
An error has occurred. This application may no longer respond until reloaded. Reload 🗙